Time;durP1;ratioP1;P1;durP2;ratioP2;P2;SDS_P1;SDS_P2;PMS_P1;PMS_P2;Temp;Humidity;BMP_temperature;BMP_pressure;BME280_temperature;BME280_humidity;BME280_pressure;Samples;Min_cycle;Max_cycle;Signal;HPM_P1;HPM_P2
2021/09/24 00:01:46;;;;;;;12.10;2.00;;;;;;;12.62;98.16;100722.38;112561;1183;61033;-82
2021/09/24 00:04:13;;;;;;;5.00;1.20;;;;;;;12.60;98.50;100720.77;112571;1193;61026;-82
2021/09/24 00:06:44;;;;;;;7.80;2.30;;;;;;;12.58;98.75;100726.80;112450;1193;72576;-82
2021/09/24 00:09:12;;;;;;;17.10;2.00;;;;;;;12.58;98.73;100726.66;112589;1193;61955;-81
2021/09/24 00:11:40;;;;;;;10.60;1.50;;;;;;;12.57;98.34;100733.82;112626;1192;61347;-81
2021/09/24 00:14:07;;;;;;;6.10;1.30;;;;;;;12.58;98.05;100738.67;112707;1193;74684;-80
2021/09/24 00:16:34;;;;;;;6.50;1.80;;;;;;;12.60;97.85;100739.34;112783;1192;73748;-80
2021/09/24 00:19:01;;;;;;;5.90;1.00;;;;;;;12.61;97.52;100746.40;112697;1192;73581;-82
2021/09/24 00:21:28;;;;;;;6.90;1.50;;;;;;;12.60;97.38;100740.95;112635;1192;62003;-82
2021/09/24 00:23:54;;;;;;;8.10;1.50;;;;;;;12.59;97.10;100743.22;112563;1192;62148;-82
2021/09/24 00:26:21;;;;;;;5.00;1.30;;;;;;;12.58;97.23;100740.52;112650;1193;60985;-81
2021/09/24 00:28:47;;;;;;;8.70;1.60;;;;;;;12.56;97.31;100738.02;112610;1192;61065;-81
2021/09/24 00:31:14;;;;;;;5.90;1.50;;;;;;;12.55;97.35;100736.58;112699;1192;61026;-81
2021/09/24 00:33:41;;;;;;;6.10;1.40;;;;;;;12.55;97.28;100740.19;112571;1193;62142;-82
2021/09/24 00:36:07;;;;;;;7.90;1.60;;;;;;;12.53;97.19;100744.10;112654;1192;61232;-82
2021/09/24 00:38:38;;;;;;;5.20;1.20;;;;;;;12.52;97.01;100743.21;112647;1193;74551;-81
2021/09/24 00:41:06;;;;;;;4.70;1.20;;;;;;;12.52;96.83;100743.77;112576;1192;72339;-81
2021/09/24 00:43:35;;;;;;;9.90;2.30;;;;;;;12.51;96.79;100741.56;112519;1193;72229;-82
2021/09/24 00:46:03;;;;;;;10.90;1.70;;;;;;;12.49;96.72;100747.27;112549;1193;62305;-82
2021/09/24 00:48:31;;;;;;;10.20;2.30;;;;;;;12.47;96.39;100738.95;112563;1191;61039;-82
2021/09/24 00:50:57;;;;;;;9.90;1.60;;;;;;;12.47;96.57;100742.51;113350;1193;76509;-82
2021/09/24 00:53:24;;;;;;;16.00;3.00;;;;;;;12.48;96.51;100735.98;113043;1191;71228;-82
2021/09/24 00:55:50;;;;;;;10.30;1.40;;;;;;;12.48;96.28;100738.55;112639;1192;61077;-83
2021/09/24 00:58:17;;;;;;;9.30;1.80;;;;;;;12.49;96.04;100740.23;112598;1193;62940;-82
2021/09/24 01:00:44;;;;;;;11.50;1.90;;;;;;;12.49;95.94;100743.95;112748;1192;60976;-83
2021/09/24 01:03:10;;;;;;;9.00;2.30;;;;;;;12.49;95.61;100737.46;112675;1190;75663;-81
2021/09/24 01:05:37;;;;;;;6.10;1.30;;;;;;;12.50;95.71;100741.52;112636;1191;71992;-81
2021/09/24 01:08:04;;;;;;;14.30;2.50;;;;;;;12.51;95.81;100735.02;112599;1192;61464;-81
2021/09/24 01:10:31;;;;;;;9.10;1.70;;;;;;;12.52;95.80;100733.85;112585;1192;61922;-81
2021/09/24 01:12:57;;;;;;;11.60;1.50;;;;;;;12.52;96.04;100736.64;112635;1190;62009;-81
2021/09/24 01:15:24;;;;;;;11.30;1.90;;;;;;;12.53;96.14;100741.15;112596;1190;74717;-81
2021/09/24 01:17:50;;;;;;;7.10;1.70;;;;;;;12.53;96.31;100741.08;112635;1190;71042;-81
2021/09/24 01:20:19;;;;;;;10.30;1.70;;;;;;;12.54;96.45;100738.02;112613;1191;73739;-81
2021/09/24 01:22:48;;;;;;;8.70;1.50;;;;;;;12.55;96.54;100737.90;112786;1190;62335;-81
2021/09/24 01:25:17;;;;;;;8.10;1.40;;;;;;;12.55;97.01;100737.48;113060;1192;61018;-81
2021/09/24 01:27:44;;;;;;;6.00;1.40;;;;;;;12.55;97.27;100740.34;112777;1192;75055;-82
2021/09/24 01:30:11;;;;;;;7.10;2.10;;;;;;;12.55;97.35;100744.27;112753;1193;71154;-84
2021/09/24 01:32:38;;;;;;;9.50;2.70;;;;;;;12.54;97.43;100742.92;112716;1190;72894;-81
2021/09/24 01:35:07;;;;;;;8.20;1.10;;;;;;;12.55;97.29;100738.55;112585;1193;62094;-82
2021/09/24 01:37:34;;;;;;;7.20;1.40;;;;;;;12.55;97.30;100736.05;112665;1190;61238;-80
2021/09/24 01:40:02;;;;;;;10.70;2.10;;;;;;;12.54;97.47;100737.93;112677;1192;74684;-81
2021/09/24 01:42:28;;;;;;;9.70;1.10;;;;;;;12.53;97.60;100734.51;112496;1192;71193;-81
2021/09/24 01:44:55;;;;;;;6.60;1.20;;;;;;;12.53;97.43;100733.48;112675;1190;72359;-81
2021/09/24 01:47:21;;;;;;;5.20;1.30;;;;;;;12.52;97.46;100733.19;112682;1192;60933;-81
2021/09/24 01:49:48;;;;;;;7.50;1.30;;;;;;;12.51;97.61;100738.17;112500;1193;60946;-82
2021/09/24 01:52:15;;;;;;;5.40;1.10;;;;;;;12.50;97.36;100738.24;112543;1191;61046;-81
2021/09/24 01:54:42;;;;;;;8.10;1.40;;;;;;;12.49;97.64;100743.05;112605;1193;72061;-82
2021/09/24 01:57:08;;;;;;;5.80;1.00;;;;;;;12.47;97.46;100739.39;112671;1194;72567;-82
2021/09/24 01:59:35;;;;;;;4.20;1.40;;;;;;;12.44;97.54;100742.91;112701;1190;61610;-82
2021/09/24 02:02:01;;;;;;;8.40;1.10;;;;;;;12.39;97.72;100742.58;112559;1191;60979;-80
2021/09/24 02:04:28;;;;;;;8.80;1.60;;;;;;;12.36;97.75;100744.59;112705;1190;73520;-81
2021/09/24 02:06:55;;;;;;;6.90;1.30;;;;;;;12.31;97.96;100739.86;112619;1190;61043;-82
2021/09/24 02:09:21;;;;;;;9.50;1.30;;;;;;;12.26;98.02;100747.60;112633;1192;61042;-81
2021/09/24 02:11:48;;;;;;;7.50;1.50;;;;;;;12.20;97.97;100749.26;112592;1191;61148;-81
2021/09/24 02:14:14;;;;;;;5.80;1.10;;;;;;;12.15;98.34;100748.35;112703;1190;61026;-81
2021/09/24 02:16:41;;;;;;;5.10;0.90;;;;;;;12.09;98.39;100749.13;112572;1193;61119;-81
2021/09/24 02:19:08;;;;;;;7.80;1.50;;;;;;;12.03;98.52;100745.83;112582;1193;72023;-84
2021/09/24 02:21:34;;;;;;;10.20;1.80;;;;;;;11.98;98.75;100748.61;112597;1193;73634;-82
2021/09/24 02:24:01;;;;;;;7.00;2.00;;;;;;;11.93;98.92;100743.59;112626;1190;61989;-80
2021/09/24 02:26:28;;;;;;;8.30;1.50;;;;;;;11.87;99.09;100744.52;112613;1193;61151;-82
2021/09/24 02:29:10;;;;;;;6.30;1.30;;;;;;;11.82;99.29;100743.03;112644;1190;75687;-82
2021/09/24 02:31:36;;;;;;;10.10;1.50;;;;;;;11.77;99.48;100746.61;112634;1192;72104;-81
2021/09/24 02:34:04;;;;;;;8.70;1.50;;;;;;;11.74;99.43;100742.74;112653;1192;73611;-82
2021/09/24 02:36:30;;;;;;;7.00;1.70;;;;;;;11.71;99.64;100744.54;112819;1190;62065;-81
2021/09/24 02:38:57;;;;;;;6.60;1.10;;;;;;;11.66;99.91;100742.83;112678;1191;62233;-81
2021/09/24 02:41:24;;;;;;;8.40;1.40;;;;;;;11.63;99.97;100745.12;112573;1193;75543;-81
2021/09/24 02:43:51;;;;;;;11.80;1.60;;;;;;;11.61;100.00;100747.13;112613;1190;61056;-83
2021/09/24 02:46:17;;;;;;;6.30;1.30;;;;;;;11.59;100.00;100749.19;112651;1191;72633;-82
2021/09/24 02:48:44;;;;;;;6.90;1.30;;;;;;;11.59;100.00;100751.92;112588;1193;61107;-81
2021/09/24 02:51:11;;;;;;;8.50;1.60;;;;;;;11.59;100.00;100750.70;112692;1191;61055;-82
2021/09/24 02:53:37;;;;;;;4.00;1.20;;;;;;;11.59;100.00;100745.05;112709;1192;75745;-84
2021/09/24 02:56:04;;;;;;;3.80;1.20;;;;;;;11.58;100.00;100749.04;112756;1194;70078;-81
2021/09/24 02:58:31;;;;;;;5.40;2.00;;;;;;;11.58;100.00;100750.48;112649;1191;61176;-81
2021/09/24 03:00:57;;;;;;;8.30;1.60;;;;;;;11.58;100.00;100755.38;112690;1191;62706;-80
2021/09/24 03:03:24;;;;;;;9.60;2.60;;;;;;;11.57;100.00;100752.27;112664;1193;61053;-80
2021/09/24 03:05:52;;;;;;;6.80;2.10;;;;;;;11.57;100.00;100753.77;112620;1192;74339;-80
2021/09/24 03:08:18;;;;;;;6.40;1.30;;;;;;;11.56;100.00;100753.84;112593;1193;72432;-81
2021/09/24 03:10:45;;;;;;;9.00;1.90;;;;;;;11.56;100.00;100756.49;112608;1190;72574;-80
2021/09/24 03:13:14;;;;;;;6.70;1.70;;;;;;;11.56;100.00;100757.60;112568;1193;60966;-81
2021/09/24 03:15:41;;;;;;;6.20;1.30;;;;;;;11.56;100.00;100761.30;112579;1191;61264;-80
2021/09/24 03:18:07;;;;;;;6.50;1.20;;;;;;;11.57;100.00;100762.98;112644;1192;73588;-81
2021/09/24 03:20:34;;;;;;;8.30;1.50;;;;;;;11.57;100.00;100763.17;112740;1193;72898;-81
2021/09/24 03:23:00;;;;;;;5.40;1.30;;;;;;;11.56;100.00;100765.56;112583;1184;72707;-79
2021/09/24 03:25:27;;;;;;;8.20;1.30;;;;;;;11.55;100.00;100769.63;112639;1192;61102;-81
2021/09/24 03:27:54;;;;;;;8.60;1.90;;;;;;;11.53;100.00;100768.90;113317;1190;61011;-81
2021/09/24 03:30:20;;;;;;;6.20;1.40;;;;;;;11.54;100.00;100768.29;114152;1193;61066;-81
2021/09/24 03:32:47;;;;;;;5.60;1.90;;;;;;;11.53;100.00;100762.70;113641;1190;72054;-81
2021/09/24 03:35:13;;;;;;;6.20;1.70;;;;;;;11.52;100.00;100767.27;112664;1193;61031;-82
2021/09/24 03:37:40;;;;;;;9.50;1.90;;;;;;;11.52;100.00;100771.89;112456;1193;63113;-82
2021/09/24 03:40:08;;;;;;;6.10;1.20;;;;;;;11.53;100.00;100773.73;112562;1193;61046;-86
2021/09/24 03:42:35;;;;;;;12.00;1.70;;;;;;;11.53;100.00;100772.77;112551;1192;74135;-80
2021/09/24 03:45:02;;;;;;;7.40;1.60;;;;;;;11.54;100.00;100773.91;112559;1190;70942;-81
2021/09/24 03:47:29;;;;;;;7.90;1.70;;;;;;;11.56;100.00;100770.52;112463;1191;76451;-80
2021/09/24 03:49:55;;;;;;;6.40;1.70;;;;;;;11.56;100.00;100763.56;112461;1191;61880;-81
2021/09/24 03:52:22;;;;;;;6.60;1.20;;;;;;;11.56;100.00;100760.63;112449;1190;60982;-81
2021/09/24 03:54:49;;;;;;;8.40;1.20;;;;;;;11.56;100.00;100756.70;112474;1193;75274;-81
2021/09/24 03:57:16;;;;;;;7.60;1.50;;;;;;;11.54;100.00;100751.92;112457;1193;61039;-80
2021/09/24 03:59:42;;;;;;;5.70;1.40;;;;;;;11.54;100.00;100752.20;112354;1192;61053;-80
2021/09/24 04:02:09;;;;;;;15.10;2.70;;;;;;;11.52;100.00;100761.13;112434;1192;61124;-80
2021/09/24 04:04:35;;;;;;;6.90;1.20;;;;;;;11.50;100.00;100759.62;112545;1193;61064;-81
2021/09/24 04:07:02;;;;;;;6.60;2.00;;;;;;;11.49;100.00;100761.48;112597;1194;61039;-80
2021/09/24 04:09:29;;;;;;;8.20;2.10;;;;;;;11.49;100.00;100759.32;112524;1190;71461;-80
2021/09/24 04:11:55;;;;;;;15.40;1.70;;;;;;;11.49;100.00;100759.69;112516;1193;61056;-80
2021/09/24 04:14:22;;;;;;;9.50;1.80;;;;;;;11.48;100.00;100763.69;112629;1192;61024;-82
2021/09/24 04:16:49;;;;;;;10.90;1.50;;;;;;;11.49;100.00;100765.66;112465;1192;61026;-83
2021/09/24 04:19:15;;;;;;;4.00;1.60;;;;;;;11.50;100.00;100764.20;112643;1190;61815;-81
2021/09/24 04:21:42;;;;;;;11.10;1.50;;;;;;;11.50;100.00;100769.77;112320;1191;61059;-80
2021/09/24 04:24:09;;;;;;;7.60;1.90;;;;;;;11.50;100.00;100767.77;112444;1191;73679;-81
2021/09/24 04:26:39;;;;;;;9.20;1.40;;;;;;;11.50;100.00;100770.59;112481;1192;61087;-87
2021/09/24 04:29:07;;;;;;;11.90;2.10;;;;;;;11.50;100.00;100767.27;112972;1191;61052;-83
2021/09/24 04:31:34;;;;;;;6.30;2.40;;;;;;;11.52;100.00;100770.36;112555;1193;75941;-80
2021/09/24 04:34:01;;;;;;;9.90;1.80;;;;;;;11.52;100.00;100770.26;112496;1192;70047;-82
2021/09/24 04:36:28;;;;;;;14.60;2.20;;;;;;;11.53;100.00;100768.09;112504;1193;72674;-75
2021/09/24 04:38:56;;;;;;;5.90;2.20;;;;;;;11.53;100.00;100766.05;112323;1193;61087;-75
2021/09/24 04:41:22;;;;;;;7.00;1.40;;;;;;;11.54;100.00;100769.85;112619;1193;61051;-75
2021/09/24 04:43:49;;;;;;;11.30;2.10;;;;;;;11.56;100.00;100766.23;112329;1192;74553;-75
2021/09/24 04:46:15;;;;;;;12.20;1.70;;;;;;;11.56;100.00;100767.09;112247;1193;72046;-76
2021/09/24 04:48:42;;;;;;;12.90;2.00;;;;;;;11.57;100.00;100767.27;112208;1193;61147;-76
2021/09/24 04:51:08;;;;;;;6.50;1.40;;;;;;;11.57;100.00;100766.29;112144;1193;61026;-75
2021/09/24 04:53:35;;;;;;;3.50;1.00;;;;;;;11.58;100.00;100772.42;112337;1192;61570;-75
2021/09/24 04:56:01;;;;;;;7.90;1.40;;;;;;;11.58;100.00;100768.46;112236;1190;61430;-76
2021/09/24 04:58:28;;;;;;;7.90;2.00;;;;;;;11.59;100.00;100766.04;112174;1190;61073;-76
2021/09/24 05:00:55;;;;;;;7.60;1.40;;;;;;;11.58;100.00;100763.88;112251;1193;61075;-75
2021/09/24 05:03:21;;;;;;;7.90;1.40;;;;;;;11.59;100.00;100766.92;112244;1191;62898;-76
2021/09/24 05:05:48;;;;;;;8.50;1.90;;;;;;;11.61;100.00;100768.55;112150;1192;61085;-75
2021/09/24 05:08:14;;;;;;;6.40;1.20;;;;;;;11.61;100.00;100768.80;112146;1192;61134;-75
2021/09/24 05:10:41;;;;;;;5.20;1.60;;;;;;;11.62;100.00;100768.70;112199;1193;61021;-74
2021/09/24 05:13:07;;;;;;;11.70;1.60;;;;;;;11.63;100.00;100774.96;112204;1193;61116;-75
2021/09/24 05:15:34;;;;;;;6.80;1.70;;;;;;;11.65;100.00;100780.11;112118;1192;61004;-74
2021/09/24 05:18:01;;;;;;;7.30;1.90;;;;;;;11.67;100.00;100777.75;112143;1193;61025;-76
2021/09/24 05:20:29;;;;;;;17.50;2.50;;;;;;;11.69;100.00;100774.81;112619;1191;61122;-81
2021/09/24 05:22:57;;;;;;;6.00;1.30;;;;;;;11.72;100.00;100778.55;113021;1192;71195;-79
2021/09/24 05:25:24;;;;;;;7.30;1.30;;;;;;;11.75;100.00;100780.55;112589;1192;72457;-78
2021/09/24 05:27:52;;;;;;;6.20;1.40;;;;;;;11.80;100.00;100777.14;112793;1192;61921;-81
2021/09/24 05:30:20;;;;;;;5.00;1.50;;;;;;;11.85;100.00;100774.42;112359;1193;61176;-79
2021/09/24 05:32:47;;;;;;;5.90;1.50;;;;;;;11.89;100.00;100777.84;112478;1193;74860;-79
2021/09/24 05:35:15;;;;;;;4.40;1.30;;;;;;;11.94;100.00;100776.90;112553;1190;70815;-79
2021/09/24 05:37:45;;;;;;;7.60;1.40;;;;;;;12.00;100.00;100772.69;112486;1193;73586;-80
2021/09/24 05:40:12;;;;;;;5.00;1.30;;;;;;;12.05;100.00;100775.44;112562;1192;61493;-80
2021/09/24 05:42:39;;;;;;;5.30;1.60;;;;;;;12.10;99.87;100778.52;112582;1190;61528;-81
2021/09/24 05:45:14;;;;;;;6.40;1.00;;;;;;;12.16;99.76;100781.02;112543;1192;75883;-79
2021/09/24 05:47:42;;;;;;;4.70;1.80;;;;;;;12.21;99.41;100782.45;112709;1193;72229;-80
2021/09/24 05:50:13;;;;;;;7.50;1.70;;;;;;;12.28;99.16;100784.21;112532;1193;73580;-80
2021/09/24 05:52:43;;;;;;;5.70;1.40;;;;;;;12.32;98.74;100781.45;112575;1192;62122;-81
2021/09/24 05:55:10;;;;;;;3.60;1.20;;;;;;;12.36;98.69;100783.02;112589;1190;61242;-78
2021/09/24 05:57:37;;;;;;;4.40;1.50;;;;;;;12.40;98.56;100785.60;112418;1193;74585;-79
2021/09/24 06:00:07;;;;;;;7.70;1.50;;;;;;;12.43;98.28;100788.55;112467;1184;71189;-80
2021/09/24 06:02:34;;;;;;;8.90;1.30;;;;;;;12.48;97.99;100791.73;112593;1190;72708;-80
2021/09/24 06:05:00;;;;;;;3.80;1.10;;;;;;;12.53;97.78;100790.45;112585;1193;61722;-82
2021/09/24 06:07:28;;;;;;;6.30;1.20;;;;;;;12.58;97.60;100790.20;112449;1193;60994;-80
2021/09/24 06:09:55;;;;;;;6.10;1.40;;;;;;;12.62;97.24;100791.09;112492;1193;74636;-80
2021/09/24 06:12:21;;;;;;;6.10;1.40;;;;;;;12.67;97.15;100791.55;112532;1192;70996;-78
2021/09/24 06:14:49;;;;;;;5.90;1.10;;;;;;;12.72;97.17;100789.73;112452;1193;72309;-78
2021/09/24 06:17:16;;;;;;;10.50;1.60;;;;;;;12.77;96.66;100791.77;112326;1192;62070;-80
2021/09/24 06:19:42;;;;;;;5.20;1.60;;;;;;;12.82;96.09;100790.05;112507;1192;61026;-79
2021/09/24 06:22:10;;;;;;;5.30;1.30;;;;;;;12.87;96.01;100792.19;112402;1190;76361;-79
2021/09/24 06:24:36;;;;;;;5.40;1.20;;;;;;;12.90;95.89;100790.71;112017;1192;71831;-80
2021/09/24 06:27:03;;;;;;;5.80;1.20;;;;;;;12.94;95.54;100791.45;112546;1192;73613;-80
2021/09/24 06:29:30;;;;;;;6.70;1.40;;;;;;;12.97;95.28;100790.39;112447;1191;62572;-81
2021/09/24 06:31:59;;;;;;;4.80;1.00;;;;;;;13.00;95.09;100790.50;112536;1191;61654;-79
2021/09/24 06:34:26;;;;;;;4.20;0.90;;;;;;;13.05;95.11;100793.80;112449;1192;76936;-79
2021/09/24 06:36:53;;;;;;;5.10;1.20;;;;;;;13.12;94.89;100794.13;112563;1192;62111;-81
2021/09/24 06:39:19;;;;;;;7.70;1.70;;;;;;;13.17;94.88;100798.29;112558;1191;60989;-80
2021/09/24 06:41:46;;;;;;;5.60;0.90;;;;;;;13.23;94.67;100794.30;112659;1192;61052;-79
2021/09/24 06:44:12;;;;;;;7.80;1.80;;;;;;;13.29;94.68;100798.88;112624;1191;61001;-80
2021/09/24 06:46:39;;;;;;;7.40;1.70;;;;;;;13.36;94.31;100797.19;112500;1190;60983;-80
2021/09/24 06:49:05;;;;;;;8.60;2.50;;;;;;;13.42;94.15;100795.70;112343;1193;61075;-81
2021/09/24 06:51:33;;;;;;;5.50;1.80;;;;;;;13.50;93.27;100792.23;112625;1192;72346;-80
2021/09/24 06:53:59;;;;;;;10.30;1.40;;;;;;;13.58;93.23;100793.16;112566;1192;61605;-79
2021/09/24 06:56:26;;;;;;;5.40;1.10;;;;;;;13.65;93.09;100793.18;112588;1192;61003;-79
2021/09/24 06:58:53;;;;;;;7.60;1.20;;;;;;;13.73;92.63;100795.09;112535;1193;74587;-80
2021/09/24 07:01:19;;;;;;;6.30;1.20;;;;;;;13.80;92.63;100794.17;112766;1193;61196;-79
2021/09/24 07:03:46;;;;;;;6.80;1.80;;;;;;;13.86;92.00;100795.15;112948;1190;73000;-79
2021/09/24 07:06:14;;;;;;;10.80;1.50;;;;;;;13.92;91.62;100796.09;112888;1190;60991;-80
2021/09/24 07:08:41;;;;;;;7.60;1.40;;;;;;;13.96;91.48;100793.63;112822;1192;61053;-81
2021/09/24 07:11:08;;;;;;;8.90;1.20;;;;;;;13.99;91.48;100793.22;112784;1192;61031;-80
2021/09/24 07:13:35;;;;;;;3.60;1.10;;;;;;;14.02;90.92;100796.57;112644;1193;72062;-79
2021/09/24 07:16:02;;;;;;;8.40;1.70;;;;;;;14.03;90.59;100795.15;112280;1192;61024;-77
2021/09/24 07:18:29;;;;;;;4.60;1.30;;;;;;;14.05;90.65;100792.98;112806;1192;63097;-77
2021/09/24 07:20:55;;;;;;;5.10;1.10;;;;;;;14.08;90.27;100788.45;112570;1192;61055;-75
2021/09/24 07:23:22;;;;;;;8.50;1.30;;;;;;;14.11;89.96;100784.54;112339;1190;61052;-78
2021/09/24 07:25:50;;;;;;;4.50;1.30;;;;;;;14.14;90.33;100784.76;112438;1190;70654;-78
2021/09/24 07:28:17;;;;;;;3.00;1.10;;;;;;;14.15;90.16;100789.31;112409;1193;72229;-78
2021/09/24 07:30:44;;;;;;;2.00;1.00;;;;;;;14.18;89.93;100782.39;112383;1193;62732;-78
2021/09/24 07:33:10;;;;;;;5.60;1.30;;;;;;;14.22;89.89;100790.21;112331;1193;61074;-78
2021/09/24 07:35:37;;;;;;;5.20;1.30;;;;;;;14.27;90.24;100787.30;112203;1193;61046;-77
2021/09/24 07:38:04;;;;;;;21.60;3.80;;;;;;;14.32;90.01;100788.70;112236;1190;61061;-79
2021/09/24 07:40:30;;;;;;;10.70;1.40;;;;;;;14.38;89.93;100790.96;112276;1192;72540;-79
2021/09/24 07:42:57;;;;;;;4.00;0.90;;;;;;;14.44;89.76;100795.09;112256;1193;61068;-79
2021/09/24 07:45:23;;;;;;;5.70;1.80;;;;;;;14.49;89.77;100802.14;112368;1193;61094;-79
2021/09/24 07:47:50;;;;;;;4.80;1.90;;;;;;;14.52;89.42;100804.95;112373;1193;75538;-76
2021/09/24 07:50:17;;;;;;;4.30;1.40;;;;;;;14.57;89.29;100806.11;112169;1192;70997;-77
2021/09/24 07:52:44;;;;;;;2.00;0.90;;;;;;;14.63;89.30;100807.20;112491;1193;72719;-77
2021/09/24 07:55:11;;;;;;;6.20;1.30;;;;;;;14.73;89.33;100804.74;112532;1193;62481;-78
2021/09/24 07:57:38;;;;;;;4.70;1.10;;;;;;;14.82;89.27;100810.97;112587;1192;61035;-79
2021/09/24 08:00:06;;;;;;;8.30;1.30;;;;;;;14.90;88.69;100805.91;112545;1192;74871;-77
2021/09/24 08:02:33;;;;;;;6.90;1.90;;;;;;;14.98;88.99;100808.44;112635;1192;71013;-76
2021/09/24 08:05:00;;;;;;;6.40;1.50;;;;;;;15.06;88.61;100805.59;112757;1193;72463;-78
2021/09/24 08:07:26;;;;;;;6.30;1.70;;;;;;;15.10;88.25;100806.27;112747;1193;61037;-78
2021/09/24 08:09:53;;;;;;;4.50;1.40;;;;;;;15.14;88.18;100808.44;112778;1192;60973;-77
2021/09/24 08:12:19;;;;;;;11.90;1.50;;;;;;;15.17;87.76;100801.83;112468;1193;60997;-76
2021/09/24 08:14:51;;;;;;;6.20;1.70;;;;;;;15.19;87.56;100809.27;112525;1193;71106;-76
2021/09/24 08:17:17;;;;;;;7.40;1.50;;;;;;;15.20;87.26;100803.81;112477;1193;61034;-77
2021/09/24 08:19:44;;;;;;;6.60;2.50;;;;;;;15.20;87.03;100802.07;112418;1192;61067;-75
2021/09/24 08:22:10;;;;;;;8.20;1.50;;;;;;;15.23;87.49;100801.56;112504;1193;61058;-76
2021/09/24 08:24:37;;;;;;;7.50;1.50;;;;;;;15.27;87.23;100802.26;112510;1190;74381;-76
2021/09/24 08:27:04;;;;;;;6.90;2.00;;;;;;;15.31;86.95;100797.77;112427;1193;61042;-76
2021/09/24 08:29:30;;;;;;;6.50;1.40;;;;;;;15.35;86.80;100799.06;112241;1192;72500;-75
2021/09/24 08:31:57;;;;;;;7.50;1.40;;;;;;;15.39;86.28;100803.17;112237;1192;61213;-78
2021/09/24 08:34:23;;;;;;;8.70;1.60;;;;;;;15.41;86.13;100806.59;112162;1192;62034;-78
2021/09/24 08:36:50;;;;;;;6.90;1.10;;;;;;;15.43;85.92;100808.48;112011;1193;61058;-78
2021/09/24 08:39:17;;;;;;;4.30;1.00;;;;;;;15.43;85.68;100808.17;112178;1193;70059;-76
2021/09/24 08:41:43;;;;;;;5.30;1.50;;;;;;;15.44;85.10;100811.61;112169;1192;61069;-77
2021/09/24 08:44:10;;;;;;;7.20;1.40;;;;;;;15.48;85.07;100812.98;112175;1192;60947;-76
2021/09/24 08:46:37;;;;;;;5.90;1.20;;;;;;;15.54;84.84;100807.31;112227;1192;61170;-77
2021/09/24 08:49:05;;;;;;;3.70;1.30;;;;;;;15.59;84.27;100805.34;112324;1192;76033;-78
2021/09/24 08:51:34;;;;;;;5.70;1.40;;;;;;;15.66;83.79;100795.45;112282;1192;72092;-77
2021/09/24 08:54:03;;;;;;;4.70;1.00;;;;;;;15.74;83.24;100793.88;112279;1193;72270;-77
2021/09/24 08:56:29;;;;;;;4.60;1.10;;;;;;;15.86;83.50;100789.27;112134;1192;62098;-78
2021/09/24 08:58:56;;;;;;;5.50;1.20;;;;;;;15.95;82.70;100790.02;112146;1192;61406;-78
2021/09/24 09:01:22;;;;;;;4.20;1.30;;;;;;;16.00;82.05;100786.12;112191;1192;61135;-77
2021/09/24 09:03:49;;;;;;;4.20;1.10;;;;;;;16.02;81.30;100793.70;112162;1193;61119;-77
2021/09/24 09:06:17;;;;;;;4.50;1.20;;;;;;;16.03;81.37;100791.10;112002;1192;72425;-77
2021/09/24 09:08:46;;;;;;;4.80;1.20;;;;;;;16.04;80.93;100791.09;112024;1192;61910;-77
2021/09/24 09:11:18;;;;;;;7.40;1.00;;;;;;;16.04;80.97;100788.58;112268;1192;61083;-77
2021/09/24 09:13:51;;;;;;;5.20;1.20;;;;;;;16.06;81.41;100787.46;112259;1193;75919;-77
2021/09/24 09:16:19;;;;;;;4.10;1.20;;;;;;;16.05;81.03;100790.66;112338;1193;71107;-78
2021/09/24 09:18:47;;;;;;;4.30;0.90;;;;;;;16.01;80.68;100792.83;112230;1192;73591;-78
2021/09/24 09:21:16;;;;;;;4.30;1.20;;;;;;;16.05;81.32;100788.98;112243;1193;63117;-78
2021/09/24 09:23:52;;;;;;;4.40;1.30;;;;;;;16.10;80.95;100788.83;112231;1192;61061;-78
2021/09/24 09:26:19;;;;;;;5.30;1.10;;;;;;;16.18;80.40;100781.19;112184;1193;73686;-77
2021/09/24 09:28:54;;;;;;;5.40;1.30;;;;;;;16.31;79.66;100785.14;112101;1192;72013;-77
2021/09/24 09:31:29;;;;;;;5.80;1.20;;;;;;;16.46;79.56;100784.60;112397;1193;72538;-78
2021/09/24 09:34:01;;;;;;;6.00;1.80;;;;;;;16.60;78.73;100782.56;112456;1193;62016;-77
2021/09/24 09:36:41;;;;;;;5.00;1.50;;;;;;;16.74;78.36;100784.85;112337;1193;61238;-77
2021/09/24 09:39:16;;;;;;;4.80;1.20;;;;;;;16.87;78.05;100785.65;112213;1192;75078;-78
2021/09/24 09:42:06;;;;;;;4.70;1.30;;;;;;;17.01;77.44;100790.80;112241;1192;72137;-78
2021/09/24 09:44:33;;;;;;;3.10;1.10;;;;;;;17.20;76.90;100781.83;112233;1192;72618;-78
2021/09/24 09:47:00;;;;;;;3.70;1.20;;;;;;;17.36;76.45;100782.16;112222;1193;61060;-75
2021/09/24 09:49:29;;;;;;;4.50;1.30;;;;;;;17.50;75.86;100785.94;112217;1193;61311;-78
2021/09/24 09:52:14;;;;;;;5.20;1.20;;;;;;;17.62;74.57;100784.84;112280;1193;75560;-76
2021/09/24 09:54:41;;;;;;;3.70;1.20;;;;;;;17.71;73.78;100781.67;112139;1192;73416;-77
2021/09/24 09:57:18;;;;;;;7.20;1.40;;;;;;;17.77;73.74;100776.23;112593;1192;72319;-77
2021/09/24 09:59:49;;;;;;;5.50;1.20;;;;;;;17.82;73.85;100775.06;112768;1192;61062;-75
2021/09/24 10:02:19;;;;;;;6.20;2.00;;;;;;;17.87;73.32;100773.63;112156;1193;60981;-76
2021/09/24 10:04:52;;;;;;;4.30;1.30;;;;;;;17.94;73.67;100770.31;112250;1193;74766;-76
2021/09/24 10:07:24;;;;;;;5.90;1.90;;;;;;;18.01;72.91;100768.63;112732;1192;71255;-76
2021/09/24 10:10:09;;;;;;;5.50;1.40;;;;;;;18.12;73.75;100762.89;112290;1191;74655;-77
2021/09/24 10:12:37;;;;;;;6.40;1.20;;;;;;;18.14;72.43;100767.08;112522;1193;61007;-77
2021/09/24 10:15:07;;;;;;;6.30;1.80;;;;;;;18.09;72.24;100761.35;112283;1192;61768;-77
2021/09/24 10:17:34;;;;;;;6.20;2.00;;;;;;;18.05;72.04;100769.45;112390;1192;75801;-76
2021/09/24 10:20:04;;;;;;;5.80;1.80;;;;;;;18.01;72.44;100766.11;112044;1192;70695;-77
2021/09/24 10:22:31;;;;;;;3.30;1.30;;;;;;;18.06;72.22;100768.69;112195;1192;72563;-76
2021/09/24 10:24:58;;;;;;;9.00;2.40;;;;;;;18.07;72.30;100765.09;112135;1193;61031;-77
2021/09/24 10:27:35;;;;;;;4.50;1.40;;;;;;;17.99;72.27;100768.19;112188;1193;61027;-77
2021/09/24 10:30:11;;;;;;;5.60;1.60;;;;;;;17.98;72.66;100762.25;111821;1193;75653;-76
2021/09/24 10:32:51;;;;;;;5.10;2.20;;;;;;;18.05;72.62;100763.60;112317;1192;71042;-75
2021/09/24 10:35:18;;;;;;;4.90;1.80;;;;;;;18.09;72.64;100762.05;112284;1192;72559;-75
2021/09/24 10:37:47;;;;;;;5.00;1.80;;;;;;;18.18;72.67;100760.31;112120;1192;61055;-76
2021/09/24 10:40:19;;;;;;;3.90;1.60;;;;;;;18.29;72.33;100756.23;112307;1192;60953;-75
2021/09/24 10:42:47;;;;;;;5.50;1.90;;;;;;;18.40;71.45;100756.17;112160;1193;75142;-77
2021/09/24 10:45:20;;;;;;;4.90;1.70;;;;;;;18.44;71.46;100760.17;112379;1192;71309;-76
2021/09/24 10:48:04;;;;;;;5.20;1.70;;;;;;;18.44;71.71;100760.38;112420;1192;73733;-75
2021/09/24 10:50:34;;;;;;;7.10;1.50;;;;;;;18.38;71.12;100760.95;112243;1193;63031;-76
2021/09/24 10:53:09;;;;;;;8.10;1.90;;;;;;;18.32;71.19;100748.48;112242;1192;61119;-77
2021/09/24 10:55:39;;;;;;;4.50;1.80;;;;;;;18.28;71.54;100747.84;112269;1192;75587;-77
2021/09/24 10:58:06;;;;;;;6.50;2.40;;;;;;;18.29;70.86;100746.30;112278;1192;72182;-77
2021/09/24 11:00:34;;;;;;;4.50;2.30;;;;;;;18.34;70.45;100750.49;112197;1191;73462;-77
2021/09/24 11:03:16;;;;;;;4.00;1.80;;;;;;;18.45;70.03;100746.43;112400;1193;60994;-76
2021/09/24 11:05:58;;;;;;;7.00;2.50;;;;;;;18.66;69.81;100739.75;112209;1193;61150;-77
2021/09/24 11:08:33;;;;;;;3.10;2.10;;;;;;;18.87;69.28;100740.48;112348;1190;74707;-74
2021/09/24 11:11:12;;;;;;;4.20;2.00;;;;;;;19.08;69.19;100738.16;112195;1192;71006;-76
2021/09/24 11:13:42;;;;;;;5.60;2.30;;;;;;;19.21;67.46;100739.20;112198;1192;72129;-77
2021/09/24 11:16:16;;;;;;;5.80;2.60;;;;;;;19.29;67.04;100742.70;112474;1193;60950;-77
2021/09/24 11:18:56;;;;;;;;;;;;;;;19.35;66.26;100737.61;112403;1192;61023;-77